Bellville, Texas
Current Conditions -  °F | °C
As of 1:15 PM on Monday 20 Oct 2014 (Local Time) from K11R Reporting Station
Clear Clear  
Wind Chill: 81°   Ceiling: Unl
Heat Index: 82°   Visibility: 10mi
Dew Point: 61°   Wind: 7mph
Humidity: 51%   Direction: 360°N
Pressure: 30.05"   Gusts: NA
Location:  29.95°N, 96.26°W
Report Text: K11R 201815Z AUTO 36006KT 10SM CLR 27/16 A3005 RMK AO2 T02710161
Loading
Personal Weather Stations






























Interactive Weather Map
Tropical Storm Tracking
New forecast layout! Learn more

10-Day Weather Forecast

Advertisements
Track Severe Weather on mobile